createdAt,value
2018-05-08T00:00:41.567Z,94376.03
2018-05-08T00:03:10.131Z,94372.42
2018-05-08T00:05:38.748Z,94370.55
2018-05-08T00:08:07.304Z,94364.75
2018-05-08T00:10:35.879Z,94374.42
2018-05-08T00:13:04.466Z,94372.95
2018-05-08T00:15:33.061Z,94372.52
2018-05-08T00:18:01.628Z,94367.71
2018-05-08T00:20:30.231Z,94365.67
2018-05-08T00:22:58.470Z,94366.78
2018-05-08T00:25:27.077Z,94365.19
2018-05-08T00:27:55.747Z,94360.53
2018-05-08T00:30:24.448Z,94361.61
2018-05-08T00:32:53.011Z,94367.31
2018-05-08T00:35:21.585Z,94362.97
2018-05-08T00:37:50.148Z,94364.56
2018-05-08T00:40:18.696Z,94365.00
2018-05-08T00:42:47.260Z,94364.20
2018-05-08T00:45:15.813Z,94359.94
2018-05-08T00:47:44.426Z,94364.38
2018-05-08T00:50:12.991Z,94354.03
2018-05-08T00:52:41.564Z,94357.51
2018-05-08T00:55:10.113Z,94355.75
2018-05-08T00:57:38.701Z,94351.66
2018-05-08T01:00:07.306Z,94349.96
2018-05-08T01:02:35.867Z,94349.56
2018-05-08T01:05:04.419Z,94346.23
2018-05-08T01:07:33.012Z,94350.61
2018-05-08T01:10:01.698Z,94341.48
2018-05-08T01:12:30.255Z,94343.43
2018-05-08T01:14:58.838Z,94341.30
2018-05-08T01:17:27.402Z,94338.02
2018-05-08T01:19:56.645Z,94340.97
2018-05-08T01:22:25.200Z,94337.59
2018-05-08T01:24:53.774Z,94335.95
2018-05-08T01:27:22.335Z,94331.39
2018-05-08T01:29:51.056Z,94323.19
2018-05-08T01:32:19.620Z,94319.41
2018-05-08T01:34:48.188Z,94313.35
2018-05-08T01:37:17.725Z,94312.03
2018-05-08T01:39:46.332Z,94311.75
2018-05-08T01:42:14.780Z,94300.64
2018-05-08T01:44:43.461Z,94300.91
2018-05-08T01:47:12.060Z,94299.42
2018-05-08T01:49:41.597Z,94302.75
2018-05-08T01:52:10.331Z,94300.78
2018-05-08T01:54:38.748Z,94298.25
2018-05-08T01:57:07.323Z,94296.77
2018-05-08T01:59:35.891Z,94293.48
2018-05-08T02:02:03.907Z,94293.57
2018-05-08T02:04:32.492Z,94288.52
2018-05-08T02:07:00.882Z,94285.87
2018-05-08T02:09:29.471Z,94287.03
2018-05-08T02:11:58.024Z,94287.23
2018-05-08T02:14:26.588Z,94283.52
2018-05-08T02:16:55.151Z,94286.80
2018-05-08T02:19:23.483Z,94288.77
2018-05-08T02:21:52.073Z,94289.48
2018-05-08T02:24:22.033Z,94290.65
2018-05-08T02:26:50.743Z,94290.65
2018-05-08T02:29:19.296Z,94289.33
2018-05-08T02:31:47.876Z,94291.05
2018-05-08T02:34:16.431Z,94293.02
2018-05-08T02:36:45.047Z,94295.86
2018-05-08T02:39:13.600Z,94292.94
2018-05-08T02:41:42.150Z,94291.33
2018-05-08T02:44:10.715Z,94291.33
2018-05-08T02:46:39.274Z,94285.39
2018-05-08T02:49:07.828Z,94291.73
2018-05-08T02:51:36.400Z,94285.76
2018-05-08T02:54:04.967Z,94288.84
2018-05-08T02:56:33.570Z,94290.05
2018-05-08T02:59:02.133Z,94286.20
2018-05-08T03:01:30.698Z,94284.27
2018-05-08T03:03:59.273Z,94285.88
2018-05-08T03:06:27.829Z,94286.72
2018-05-08T03:08:56.159Z,94288.88
2018-05-08T03:11:24.765Z,94282.19
2018-05-08T03:13:53.373Z,94279.38
2018-05-08T03:16:21.937Z,94288.47
2018-05-08T03:18:49.851Z,94279.98
2018-05-08T03:21:18.407Z,94278.86
2018-05-08T03:23:46.979Z,94281.38
2018-05-08T03:26:15.550Z,94279.98
2018-05-08T03:28:44.111Z,94282.82
2018-05-08T03:31:12.668Z,94283.38
2018-05-08T03:33:41.229Z,94282.78
2018-05-08T03:36:09.807Z,94280.66
2018-05-08T03:38:38.411Z,94286.07
2018-05-08T03:41:06.966Z,94280.39
2018-05-08T03:43:35.513Z,94280.95
2018-05-08T03:46:04.070Z,94278.66
2018-05-08T03:48:32.664Z,94285.95
2018-05-08T03:51:01.005Z,94277.91
2018-05-08T03:53:29.580Z,94280.74
2018-05-08T03:55:58.240Z,94281.66
2018-05-08T03:58:26.848Z,94278.34
2018-05-08T04:01:06.397Z,94287.28
2018-05-08T04:03:46.085Z,94286.91
2018-05-08T04:06:30.599Z,94288.64
2018-05-08T04:08:59.158Z,94283.00
2018-05-08T04:11:27.737Z,94292.06
2018-05-08T04:13:56.325Z,94291.61
2018-05-08T04:16:24.895Z,94293.68
2018-05-08T04:18:53.456Z,94289.86
2018-05-08T04:21:22.014Z,94295.77
2018-05-08T04:23:50.596Z,94295.41
2018-05-08T04:26:19.163Z,94298.39
2018-05-08T04:28:47.743Z,94303.27
2018-05-08T04:31:16.303Z,94299.35
2018-05-08T04:33:44.873Z,94294.55
2018-05-08T04:36:13.432Z,94297.19
2018-05-08T04:38:42.015Z,94295.81
2018-05-08T04:41:10.604Z,94294.30
2018-05-08T04:43:39.185Z,94295.78
2018-05-08T04:46:07.769Z,94289.16
2018-05-08T04:48:36.336Z,94286.02
2018-05-08T04:51:04.896Z,94287.22
2018-05-08T04:53:33.456Z,94285.78
2018-05-08T04:56:02.046Z,94284.17
2018-05-08T04:58:30.611Z,94282.41
2018-05-08T05:00:59.186Z,94284.33
2018-05-08T05:03:27.764Z,94280.25
2018-05-08T05:05:56.414Z,94275.97
2018-05-08T05:08:25.123Z,94275.91
2018-05-08T05:10:53.781Z,94272.08
2018-05-08T05:13:22.340Z,94277.73
2018-05-08T05:15:50.956Z,94286.16
2018-05-08T05:18:19.526Z,94278.31
2018-05-08T05:20:48.127Z,94278.48
2018-05-08T05:23:16.752Z,94276.23
2018-05-08T05:25:45.363Z,94272.14
2018-05-08T05:28:13.929Z,94272.69
2018-05-08T05:30:42.527Z,94274.39
2018-05-08T05:33:11.091Z,94275.39
2018-05-08T05:35:39.667Z,94275.02
2018-05-08T05:38:08.262Z,94279.00
2018-05-08T05:40:36.833Z,94277.79
2018-05-08T05:43:05.599Z,94278.47
2018-05-08T05:45:34.168Z,94283.38
2018-05-08T05:48:02.738Z,94278.58
2018-05-08T05:50:31.307Z,94278.86
2018-05-08T05:52:59.901Z,94274.50
2018-05-08T05:55:28.485Z,94281.77
2018-05-08T05:57:57.050Z,94281.15
2018-05-08T06:00:25.672Z,94281.28
2018-05-08T06:02:54.241Z,94274.91
2018-05-08T06:05:22.580Z,94278.47
2018-05-08T06:07:51.141Z,94268.63
2018-05-08T06:10:19.938Z,94270.50
2018-05-08T06:12:48.540Z,94282.08
2018-05-08T06:15:17.112Z,94276.49
2018-05-08T06:17:45.723Z,94272.90
2018-05-08T06:20:14.344Z,94273.14
2018-05-08T06:22:42.962Z,94265.97
2018-05-08T06:25:11.529Z,94272.47
2018-05-08T06:27:40.109Z,94265.95
2018-05-08T06:30:08.732Z,94273.28
2018-05-08T06:32:37.292Z,94269.70
2018-05-08T06:35:06.072Z,94260.53
2018-05-08T06:37:34.633Z,94263.32
2018-05-08T06:40:03.278Z,94264.77
2018-05-08T06:42:32.033Z,94266.45
2018-05-08T06:45:00.617Z,94272.17
2018-05-08T06:47:29.375Z,94263.30
2018-05-08T06:49:57.985Z,94265.38
2018-05-08T06:52:26.584Z,94257.99
2018-05-08T06:54:55.214Z,94263.22
2018-05-08T06:57:23.821Z,94258.72
2018-05-08T06:59:52.406Z,94255.86
2018-05-08T07:02:21.194Z,94252.67
2018-05-08T07:04:49.742Z,94257.62
2018-05-08T07:07:18.332Z,94260.73
2018-05-08T07:09:46.667Z,94251.95
2018-05-08T07:12:15.215Z,94256.48
2018-05-08T07:14:43.782Z,94260.55
2018-05-08T07:17:12.359Z,94252.17
2018-05-08T07:19:40.926Z,94252.09
2018-05-08T07:22:09.561Z,94247.80
2018-05-08T07:24:38.120Z,94247.39
2018-05-08T07:27:06.699Z,94248.59
2018-05-08T07:29:35.334Z,94249.50
2018-05-08T07:32:03.901Z,94249.98
2018-05-08T07:34:32.453Z,94241.39
2018-05-08T07:37:01.019Z,94243.88
2018-05-08T07:39:29.590Z,94244.73
2018-05-08T07:41:58.156Z,94242.67
2018-05-08T07:44:26.767Z,94238.84
2018-05-08T07:46:55.332Z,94240.73
2018-05-08T07:49:23.882Z,94235.12
2018-05-08T07:51:52.486Z,94232.31
2018-05-08T07:54:21.055Z,94234.42
2018-05-08T07:56:49.608Z,94244.02
2018-05-08T07:59:18.202Z,94235.20
2018-05-08T08:01:46.766Z,94235.28
2018-05-08T08:04:15.319Z,94230.74
2018-05-08T08:06:43.964Z,94228.70
2018-05-08T08:09:12.522Z,94226.73
2018-05-08T08:11:41.076Z,94226.86
2018-05-08T08:14:09.657Z,94226.73
2018-05-08T08:16:38.268Z,94225.88
2018-05-08T08:19:06.900Z,94224.41
2018-05-08T08:21:35.313Z,94224.59
2018-05-08T08:24:04.162Z,94213.38
2018-05-08T08:26:32.741Z,94218.78
2018-05-08T08:29:01.352Z,94218.73
2018-05-08T08:31:29.957Z,94223.83
2018-05-08T08:33:58.642Z,94223.26
2018-05-08T08:36:27.384Z,94220.28
2018-05-08T08:39:29.671Z,94222.89
2018-05-08T08:41:58.236Z,94221.54
2018-05-08T08:44:26.807Z,94217.67
2018-05-08T08:46:57.028Z,94216.95
2018-05-08T08:49:25.409Z,94208.16
2018-05-08T08:51:54.126Z,94206.20
2018-05-08T08:54:22.706Z,94202.28
2018-05-08T08:56:51.290Z,94205.59
2018-05-08T08:59:19.867Z,94202.37
2018-05-08T09:01:48.440Z,94209.23
2018-05-08T09:04:16.996Z,94204.02
2018-05-08T09:06:45.551Z,94195.49
2018-05-08T09:09:14.183Z,94197.47
2018-05-08T09:11:42.739Z,94195.08
2018-05-08T09:14:11.081Z,94194.45
2018-05-08T09:16:39.631Z,94189.97
2018-05-08T09:19:08.189Z,94187.08
2018-05-08T09:21:36.829Z,94182.39
2018-05-08T09:24:05.398Z,94176.34
2018-05-08T09:26:34.149Z,94177.77
2018-05-08T09:29:02.713Z,94167.27
2018-05-08T09:31:31.280Z,94170.65
2018-05-08T09:33:59.877Z,94166.64
2018-05-08T09:36:28.452Z,94170.44
2018-05-08T09:38:57.032Z,94167.48
2018-05-08T09:41:25.611Z,94165.72
2018-05-08T09:43:54.180Z,94160.08
2018-05-08T09:46:22.938Z,94157.20
2018-05-08T09:48:51.621Z,94155.05
2018-05-08T09:51:20.295Z,94159.89
2018-05-08T09:53:48.864Z,94155.55
2018-05-08T09:56:17.435Z,94146.94
2018-05-08T09:58:45.992Z,94147.68
2018-05-08T10:01:14.562Z,94145.41
2018-05-08T10:03:43.155Z,94151.59
2018-05-08T10:06:11.719Z,94146.97
2018-05-08T10:08:40.310Z,94153.89
2018-05-08T10:11:08.872Z,94142.34
2018-05-08T10:13:37.474Z,94138.90
2018-05-08T10:16:05.799Z,94130.09
2018-05-08T10:18:34.408Z,94140.61
2018-05-08T10:21:03.050Z,94136.25
2018-05-08T10:23:31.657Z,94131.08
2018-05-08T10:26:00.274Z,94125.57
2018-05-08T10:28:28.842Z,94137.45
2018-05-08T10:30:57.449Z,94128.12
2018-05-08T10:33:26.016Z,94120.77
2018-05-08T10:35:54.595Z,94129.31
2018-05-08T10:38:23.221Z,94123.00
2018-05-08T10:40:51.793Z,94126.52
2018-05-08T10:43:20.121Z,94117.39
2018-05-08T10:45:48.735Z,94116.73
2018-05-08T10:48:17.339Z,94121.39
2018-05-08T10:50:45.946Z,94109.67
2018-05-08T10:53:14.543Z,94101.68
2018-05-08T10:55:43.235Z,94101.61
2018-05-08T10:58:11.911Z,94103.38
2018-05-08T11:00:40.467Z,94092.91
2018-05-08T11:03:09.079Z,94095.50
2018-05-08T11:05:37.631Z,94079.70
2018-05-08T11:08:06.187Z,94090.03
2018-05-08T11:10:34.746Z,94080.39
2018-05-08T11:13:03.300Z,94073.47
2018-05-08T11:15:31.875Z,94069.92
2018-05-08T11:18:00.492Z,94074.47
2018-05-08T11:20:29.231Z,94065.15
2018-05-08T11:22:57.818Z,94062.09
2018-05-08T11:25:26.437Z,94062.17
2018-05-08T11:27:54.987Z,94059.11
2018-05-08T11:30:23.614Z,94057.15
2018-05-08T11:32:52.174Z,94056.61
2018-05-08T11:35:20.738Z,94043.38
2018-05-08T11:37:49.335Z,94042.52
2018-05-08T11:40:17.893Z,94040.85
2018-05-08T11:42:46.480Z,94036.98
2018-05-08T11:45:15.051Z,94038.34
2018-05-08T11:47:43.645Z,94049.27
2018-05-08T11:50:12.251Z,94030.01
2018-05-08T11:52:40.815Z,94034.52
2018-05-08T11:55:09.383Z,94037.88
2018-05-08T11:57:37.990Z,94026.16
2018-05-08T12:00:06.589Z,94023.05
2018-05-08T12:02:35.235Z,94017.34
2018-05-08T12:05:04.002Z,94023.92
2018-05-08T12:07:32.567Z,94028.13
2018-05-08T12:10:01.147Z,94005.98
2018-05-08T12:12:29.748Z,94022.98
2018-05-08T12:14:58.294Z,94019.34
2018-05-08T12:17:26.895Z,94007.59
2018-05-08T12:19:55.456Z,94013.34
2018-05-08T12:22:24.123Z,94014.72
2018-05-08T12:24:52.704Z,94003.23
2018-05-08T12:27:21.367Z,94007.89
2018-05-08T12:29:49.932Z,94013.39
2018-05-08T12:32:18.517Z,94013.94
2018-05-08T12:34:47.115Z,94018.45
2018-05-08T12:37:15.716Z,94001.91
2018-05-08T12:39:44.314Z,94009.45
2018-05-08T12:42:12.711Z,93999.38
2018-05-08T12:44:41.244Z,93992.94
2018-05-08T12:47:09.722Z,93984.19
2018-05-08T12:49:38.320Z,93985.75
2018-05-08T12:52:06.928Z,93988.39
2018-05-08T12:54:35.485Z,93977.77
2018-05-08T12:57:03.684Z,93969.59
2018-05-08T12:59:32.268Z,93962.35
2018-05-08T13:02:01.048Z,93968.00
2018-05-08T13:04:29.636Z,93982.61
2018-05-08T13:06:58.201Z,93967.70
2018-05-08T13:09:27.422Z,93982.80
2018-05-08T13:11:55.975Z,93968.40
2018-05-08T13:14:24.567Z,93975.58
2018-05-08T13:16:53.120Z,93964.32
2018-05-08T13:19:21.671Z,93967.28
2018-05-08T13:21:50.231Z,93964.81
2018-05-08T13:24:18.840Z,93970.55
2018-05-08T13:26:47.401Z,93966.69
2018-05-08T13:29:15.961Z,93964.86
2018-05-08T13:31:44.566Z,93959.72
2018-05-08T13:34:13.134Z,93960.47
2018-05-08T13:36:41.710Z,93958.73
2018-05-08T13:39:10.564Z,93951.17
2018-05-08T13:41:39.122Z,93953.48
2018-05-08T13:44:07.686Z,93955.17
2018-05-08T13:46:36.254Z,93960.08
2018-05-08T13:49:04.834Z,93950.84
2018-05-08T13:51:33.405Z,93952.22
2018-05-08T13:54:02.001Z,93953.09
2018-05-08T13:56:30.564Z,93954.11
2018-05-08T13:58:59.149Z,93949.30
2018-05-08T14:01:27.716Z,93951.58
2018-05-08T14:03:56.273Z,93954.23
2018-05-08T14:06:24.827Z,93955.00
2018-05-08T14:08:53.422Z,93954.44
2018-05-08T14:11:21.986Z,93956.72
2018-05-08T14:13:50.547Z,93956.66
2018-05-08T14:16:19.159Z,93947.34
2018-05-08T14:18:47.717Z,93955.28
2018-05-08T14:21:16.277Z,93957.30
2018-05-08T14:23:44.843Z,93963.34
2018-05-08T14:26:13.403Z,93958.46
2018-05-08T14:28:41.967Z,93965.69
2018-05-08T14:31:10.601Z,93966.67
2018-05-08T14:33:39.172Z,93968.60
2018-05-08T14:36:07.758Z,93968.30
2018-05-08T14:38:36.406Z,93974.34
2018-05-08T14:41:05.166Z,93978.28
2018-05-08T14:43:33.741Z,93975.77
2018-05-08T14:46:02.473Z,93979.03
2018-05-08T14:48:31.019Z,93974.27
2018-05-08T14:50:59.692Z,93977.16
2018-05-08T14:53:28.261Z,93978.81
2018-05-08T14:55:56.838Z,93973.85
2018-05-08T14:58:25.408Z,93979.53
2018-05-08T15:00:53.955Z,93979.31
2018-05-08T15:03:22.510Z,93973.19
2018-05-08T15:05:51.126Z,93973.61
2018-05-08T15:08:19.692Z,93973.19
2018-05-08T15:10:48.251Z,93970.17
2018-05-08T15:13:16.821Z,93969.47
2018-05-08T15:15:45.564Z,93971.78
2018-05-08T15:18:14.178Z,93975.25
2018-05-08T15:20:42.777Z,93973.94
2018-05-08T15:23:11.332Z,93971.91
2018-05-08T15:25:39.907Z,93965.36
2018-05-08T15:28:08.501Z,93964.77
2018-05-08T15:30:37.941Z,93965.41
2018-05-08T15:33:07.011Z,93965.61
2018-05-08T15:35:35.565Z,93967.47
2018-05-08T15:38:04.131Z,93966.00
2018-05-08T15:40:32.714Z,93964.72
2018-05-08T15:43:01.277Z,93962.20
2018-05-08T15:45:29.819Z,93966.36
2018-05-08T15:47:58.368Z,93971.77
2018-05-08T15:50:26.963Z,93970.94
2018-05-08T15:52:55.520Z,93968.97
2018-05-08T15:55:24.094Z,93966.30
2018-05-08T15:57:52.701Z,93969.77
2018-05-08T16:00:21.301Z,93974.03
2018-05-08T16:02:49.852Z,93971.91
2018-05-08T16:05:18.448Z,93970.53
2018-05-08T16:07:47.338Z,93972.96
2018-05-08T16:10:16.132Z,93974.17
2018-05-08T16:12:44.717Z,93965.58
2018-05-08T16:15:13.281Z,93975.91
2018-05-08T16:17:41.856Z,93971.75
2018-05-08T16:20:10.424Z,93976.66
2018-05-08T16:22:38.983Z,93972.27
2018-05-08T16:25:07.594Z,93973.63
2018-05-08T16:27:36.187Z,93970.00
2018-05-08T16:30:08.855Z,93972.37
2018-05-08T16:32:38.359Z,93975.66
2018-05-08T16:35:06.913Z,93976.68
2018-05-08T16:37:35.469Z,93976.50
2018-05-08T16:40:03.799Z,93980.63
2018-05-08T16:42:32.399Z,93985.80
2018-05-08T16:45:00.961Z,93982.59
2018-05-08T16:47:29.515Z,93984.56
2018-05-08T16:50:00.157Z,93992.80
2018-05-08T16:52:28.751Z,93992.45
2018-05-08T16:54:57.361Z,94001.20
2018-05-08T16:57:25.936Z,94000.31
2018-05-08T16:59:54.493Z,94002.68
2018-05-08T17:02:23.555Z,94012.34
2018-05-08T17:04:52.177Z,94018.31
2018-05-08T17:07:20.867Z,94008.48
2018-05-08T17:09:49.463Z,94011.35
2018-05-08T17:12:18.020Z,94019.15
2018-05-08T17:14:47.459Z,94017.00
2018-05-08T17:17:16.749Z,94017.53
2018-05-08T17:19:45.581Z,94019.38
2018-05-08T17:22:14.170Z,94019.77
2018-05-08T17:24:42.491Z,94029.11
2018-05-08T17:27:11.118Z,94028.28
2018-05-08T17:29:39.672Z,94025.87
2018-05-08T17:32:08.238Z,94029.31
2018-05-08T17:34:36.861Z,94035.30
2018-05-08T17:37:05.419Z,94043.70
2018-05-08T17:39:34.007Z,94043.73
2018-05-08T17:42:03.421Z,94037.79
2018-05-08T17:44:31.976Z,94045.41
2018-05-08T17:47:02.024Z,94044.09
2018-05-08T17:49:30.587Z,94044.06
2018-05-08T17:51:59.250Z,94052.22
2018-05-08T17:54:28.560Z,94050.91
2018-05-08T17:56:57.153Z,94052.03
2018-05-08T17:59:25.790Z,94055.04
2018-05-08T18:01:54.369Z,94053.24
2018-05-08T18:04:23.066Z,94056.12
2018-05-08T18:06:51.723Z,94052.19
2018-05-08T18:09:20.283Z,94055.10
2018-05-08T18:11:48.904Z,94060.17
2018-05-08T18:14:23.410Z,94060.31
2018-05-08T18:16:51.999Z,94074.66
2018-05-08T18:19:20.554Z,94069.70
2018-05-08T18:21:49.116Z,94075.95
2018-05-08T18:24:17.744Z,94080.70
2018-05-08T18:26:46.406Z,94074.45
2018-05-08T18:29:14.994Z,94078.31
2018-05-08T18:31:49.336Z,94082.70
2018-05-08T18:34:18.217Z,94082.97
2018-05-08T18:36:46.787Z,94085.50
2018-05-08T18:39:15.343Z,94084.19
2018-05-08T18:41:43.947Z,94090.77
2018-05-08T18:44:12.511Z,94086.73
2018-05-08T18:46:41.148Z,94079.22
2018-05-08T18:49:09.740Z,94084.16
2018-05-08T18:51:38.345Z,94084.63
2018-05-08T18:54:06.995Z,94086.91
2018-05-08T18:56:35.568Z,94086.00
2018-05-08T18:59:04.147Z,94096.83
2018-05-08T19:01:32.747Z,94097.39
2018-05-08T19:04:01.339Z,94095.72
2018-05-08T19:06:29.897Z,94092.73
2018-05-08T19:08:58.468Z,94097.33
2018-05-08T19:11:32.431Z,94101.20
2018-05-08T19:14:01.048Z,94103.51
2018-05-08T19:16:29.639Z,94104.30
2018-05-08T19:19:03.600Z,94106.56
2018-05-08T19:21:32.180Z,94111.66
2018-05-08T19:24:06.252Z,94105.27
2018-05-08T19:26:34.898Z,94108.61
2018-05-08T19:29:09.096Z,94108.22
2018-05-08T19:31:37.646Z,94111.32
2018-05-08T19:34:06.251Z,94112.39
2018-05-08T19:36:40.225Z,94119.31
2018-05-08T19:39:08.824Z,94121.05
2018-05-08T19:41:38.387Z,94117.63
2018-05-08T19:44:07.793Z,94119.89
2018-05-08T19:46:36.376Z,94117.33
2018-05-08T19:49:05.025Z,94117.24
2018-05-08T19:51:33.599Z,94113.38
2018-05-08T19:54:02.200Z,94115.95
2018-05-08T19:56:30.828Z,94116.92
2018-05-08T19:58:59.407Z,94116.93
2018-05-08T20:01:28.002Z,94113.08
2018-05-08T20:03:56.639Z,94106.03
2018-05-08T20:06:25.242Z,94106.33
2018-05-08T20:08:53.871Z,94102.34
2018-05-08T20:11:23.408Z,94099.86
2018-05-08T20:13:52.017Z,94106.77
2018-05-08T20:16:20.655Z,94106.11
2018-05-08T20:18:49.217Z,94104.29
2018-05-08T20:21:17.799Z,94103.36
2018-05-08T20:23:46.402Z,94100.44
2018-05-08T20:26:14.981Z,94103.09
2018-05-08T20:28:43.754Z,94096.88
2018-05-08T20:31:12.342Z,94098.21
2018-05-08T20:33:41.944Z,94097.58
2018-05-08T20:36:11.521Z,94096.44
2018-05-08T20:38:39.962Z,94098.97
2018-05-08T20:41:08.550Z,94102.97
2018-05-08T20:43:37.117Z,94095.94
2018-05-08T20:46:07.313Z,94099.69
2018-05-08T20:48:35.874Z,94098.36
2018-05-08T20:51:06.048Z,94102.97
2018-05-08T20:53:34.643Z,94100.20
2018-05-08T20:56:03.277Z,94102.05
2018-05-08T20:58:31.640Z,94099.39
2018-05-08T21:01:00.354Z,94106.68
2018-05-08T21:03:29.365Z,94102.69
2018-05-08T21:05:58.130Z,94108.38
2018-05-08T21:08:27.869Z,94104.80
2018-05-08T21:10:56.491Z,94105.03
2018-05-08T21:13:25.051Z,94109.94
2018-05-08T21:15:53.616Z,94107.67
2018-05-08T21:18:22.183Z,94108.70
2018-05-08T21:20:50.759Z,94103.79
2018-05-08T21:23:19.327Z,94104.03
2018-05-08T21:25:47.929Z,94101.01
2018-05-08T21:28:21.924Z,94103.11
2018-05-08T21:30:55.823Z,94095.55
2018-05-08T21:33:24.381Z,94099.38
2018-05-08T21:35:52.944Z,94096.96
2018-05-08T21:38:21.486Z,94097.45
2018-05-08T21:40:49.690Z,94098.17
2018-05-08T21:43:18.242Z,94096.72
2018-05-08T21:45:46.791Z,94096.44
2018-05-08T21:48:15.343Z,94098.29
2018-05-08T21:50:43.913Z,94087.61
2018-05-08T21:53:12.577Z,94086.98
2018-05-08T21:55:41.141Z,94086.17
2018-05-08T21:58:09.710Z,94090.00
2018-05-08T22:00:38.323Z,94087.10
2018-05-08T22:03:06.884Z,94086.03
2018-05-08T22:05:35.449Z,94084.70
2018-05-08T22:08:04.000Z,94083.84
2018-05-08T22:10:32.583Z,94085.81
2018-05-08T22:13:01.174Z,94079.02
2018-05-08T22:15:29.744Z,94077.96
2018-05-08T22:17:58.322Z,94075.67
2018-05-08T22:20:26.983Z,94073.02
2018-05-08T22:22:55.548Z,94073.01
2018-05-08T22:25:24.131Z,94076.07
2018-05-08T22:27:52.756Z,94072.37
2018-05-08T22:30:21.488Z,94068.00
2018-05-08T22:32:50.047Z,94067.84
2018-05-08T22:35:18.612Z,94071.03
2018-05-08T22:37:47.236Z,94072.34
2018-05-08T22:40:15.798Z,94063.84
2018-05-08T22:42:44.415Z,94064.09
2018-05-08T22:45:13.034Z,94063.70
2018-05-08T22:47:41.721Z,94062.13
2018-05-08T22:50:10.309Z,94062.91
2018-05-08T22:52:38.901Z,94063.52
2018-05-08T22:55:07.455Z,94059.80
2018-05-08T22:57:36.065Z,94057.91
2018-05-08T23:00:05.936Z,94061.23
2018-05-08T23:02:34.509Z,94060.29
2018-05-08T23:05:03.269Z,94058.04
2018-05-08T23:07:31.850Z,94057.64
2018-05-08T23:10:00.469Z,94053.14
2018-05-08T23:12:29.031Z,94052.47
2018-05-08T23:14:57.632Z,94056.02
2018-05-08T23:17:26.212Z,94047.81
2018-05-08T23:19:54.966Z,94047.34
2018-05-08T23:22:23.571Z,94046.52
2018-05-08T23:24:52.159Z,94040.69
2018-05-08T23:27:20.706Z,94050.87
2018-05-08T23:29:49.304Z,94063.47
2018-05-08T23:32:17.871Z,94049.39
2018-05-08T23:34:46.442Z,94047.13
2018-05-08T23:37:14.998Z,94048.70
2018-05-08T23:39:43.603Z,94046.00
2018-05-08T23:42:12.155Z,94040.58
2018-05-08T23:44:40.727Z,94034.62
2018-05-08T23:47:09.296Z,94036.04
2018-05-08T23:49:37.892Z,94037.83
2018-05-08T23:52:06.447Z,94035.55
2018-05-08T23:54:35.042Z,94035.92
2018-05-08T23:57:03.617Z,94039.49
2018-05-08T23:59:32.167Z,94035.80
